Time;durP1;ratioP1;P1;durP2;ratioP2;P2;SDS_P1;SDS_P2;PMS_P1;PMS_P2;Temp;Humidity;BMP_temperature;BMP_pressure;BME280_temperature;BME280_humidity;BME280_pressure;Samples;Min_cycle;Max_cycle;Signal;HPM_P1;HPM_P2
2022/10/12 00:00:40;;;;;;;29.52;16.48;;;;;;;;;;4992288;28;20392;-70
2022/10/12 00:03:05;;;;;;;23.63;15.13;;;;;;;;;;4992586;28;20067;-69
2022/10/12 00:05:30;;;;;;;35.40;15.33;;;;;;;;;;4993222;28;20038;-70
2022/10/12 00:07:55;;;;;;;26.40;16.13;;;;;;;;;;5007438;28;20284;-69
2022/10/12 00:10:21;;;;;;;25.37;15.83;;;;;;;;;;4990884;28;20026;-70
2022/10/12 00:12:46;;;;;;;29.53;16.17;;;;;;;;;;4992943;28;20374;-68
2022/10/12 00:15:11;;;;;;;29.93;15.33;;;;;;;;;;4994846;28;20050;-70
2022/10/12 00:17:36;;;;;;;26.10;15.50;;;;;;;;;;4991482;28;20031;-69
2022/10/12 00:20:02;;;;;;;23.38;15.38;;;;;;;;;;4992032;28;20127;-69
2022/10/12 00:22:28;;;;;;;27.40;15.82;;;;;;;;;;4991499;28;20023;-69
2022/10/12 00:24:53;;;;;;;24.20;15.00;;;;;;;;;;4992976;28;20034;-69
2022/10/12 00:27:18;;;;;;;27.10;15.40;;;;;;;;;;4989755;28;20291;-69
2022/10/12 00:29:43;;;;;;;22.87;14.70;;;;;;;;;;4989449;28;20283;-70
2022/10/12 00:32:09;;;;;;;28.92;15.30;;;;;;;;;;4989560;28;20492;-70
2022/10/12 00:34:34;;;;;;;30.30;15.65;;;;;;;;;;4991964;28;20053;-70
2022/10/12 00:37:00;;;;;;;26.42;15.38;;;;;;;;;;5006916;28;20070;-69
2022/10/12 00:39:25;;;;;;;26.90;15.75;;;;;;;;;;4993302;28;20030;-70
2022/10/12 00:41:50;;;;;;;24.63;15.87;;;;;;;;;;4990840;28;20110;-69
2022/10/12 00:44:34;;;;;;;27.57;15.60;;;;;;;;;;4992832;28;20279;-69
2022/10/12 00:47:01;;;;;;;32.42;16.38;;;;;;;;;;4991930;28;20030;-70
2022/10/12 00:49:27;;;;;;;27.67;15.68;;;;;;;;;;4992157;28;20038;-71
2022/10/12 00:51:54;;;;;;;28.52;16.05;;;;;;;;;;4992147;28;20117;-70
2022/10/12 00:54:23;;;;;;;24.70;15.90;;;;;;;;;;4992087;28;20500;-70
2022/10/12 00:56:50;;;;;;;28.38;15.68;;;;;;;;;;4992425;28;20399;-70
2022/10/12 00:59:21;;;;;;;31.20;16.17;;;;;;;;;;4991008;28;20105;-69
2022/10/12 01:01:46;;;;;;;26.55;16.27;;;;;;;;;;4987740;28;20030;-69
2022/10/12 01:04:11;;;;;;;27.37;16.47;;;;;;;;;;4991164;28;20030;-70
2022/10/12 01:06:37;;;;;;;30.55;16.70;;;;;;;;;;4992161;28;20038;-70
2022/10/12 01:09:02;;;;;;;30.33;17.40;;;;;;;;;;4989390;28;20477;-70
2022/10/12 01:11:28;;;;;;;29.90;16.25;;;;;;;;;;4991099;28;20034;-69
2022/10/12 01:13:53;;;;;;;23.70;15.57;;;;;;;;;;4992413;28;20469;-70
2022/10/12 01:16:18;;;;;;;28.17;15.13;;;;;;;;;;4992676;28;20206;-70
2022/10/12 01:19:08;;;;;;;26.63;15.70;;;;;;;;;;4987695;28;20041;-69
2022/10/12 01:21:36;;;;;;;25.40;15.63;;;;;;;;;;4989481;28;20380;-69
2022/10/12 01:24:09;;;;;;;25.88;16.25;;;;;;;;;;4994816;28;20080;-69
2022/10/12 01:26:50;;;;;;;26.65;16.15;;;;;;;;;;4990345;28;20465;-69
2022/10/12 01:29:18;;;;;;;28.90;16.50;;;;;;;;;;4989279;28;20663;-69
2022/10/12 01:31:56;;;;;;;26.08;16.90;;;;;;;;;;4989260;28;20034;-69
2022/10/12 01:34:37;;;;;;;31.80;16.00;;;;;;;;;;4988426;28;20022;-68
2022/10/12 01:37:11;;;;;;;26.13;16.55;;;;;;;;;;4990055;28;20105;-69
2022/10/12 01:39:40;;;;;;;27.77;16.83;;;;;;;;;;4989335;28;20050;-68
2022/10/12 01:42:10;;;;;;;33.58;16.52;;;;;;;;;;4988931;28;20105;-69
2022/10/12 01:44:36;;;;;;;24.92;16.33;;;;;;;;;;4991742;28;20037;-67
2022/10/12 01:47:01;;;;;;;30.33;16.30;;;;;;;;;;4992625;28;20385;-68
2022/10/12 01:49:29;;;;;;;29.80;17.07;;;;;;;;;;4990881;28;20037;-69
2022/10/12 01:52:13;;;;;;;27.42;16.95;;;;;;;;;;4985814;28;20030;-69
2022/10/12 01:54:59;;;;;;;30.27;18.38;;;;;;;;;;4990396;28;20468;-69
2022/10/12 01:57:39;;;;;;;31.55;17.75;;;;;;;;;;4991781;28;20076;-69
2022/10/12 02:00:04;;;;;;;;;;;;;;;;;;4990349;28;20026;-69
2022/10/12 02:02:41;;;;;;;36.80;18.13;;;;;;;;;;5006169;28;20331;-69
2022/10/12 02:05:13;;;;;;;31.73;17.00;;;;;;;;;;4988289;28;20037;-69
2022/10/12 02:07:41;;;;;;;30.70;17.58;;;;;;;;;;5006088;28;20064;-70
2022/10/12 02:10:08;;;;;;;26.48;16.85;;;;;;;;;;4989609;28;20034;-70
2022/10/12 02:12:34;;;;;;;26.83;16.45;;;;;;;;;;5009128;28;20081;-68
2022/10/12 02:15:01;;;;;;;34.20;17.73;;;;;;;;;;5005125;28;20042;-69
2022/10/12 02:17:28;;;;;;;28.13;16.63;;;;;;;;;;4992150;28;20080;-69
2022/10/12 02:19:57;;;;;;;29.10;15.82;;;;;;;;;;4990432;28;20507;-68
2022/10/12 02:22:25;;;;;;;26.70;16.90;;;;;;;;;;4993312;28;20400;-69
2022/10/12 02:24:51;;;;;;;24.00;16.15;;;;;;;;;;4989358;28;20137;-68
2022/10/12 02:27:17;;;;;;;31.50;17.83;;;;;;;;;;4991266;28;20369;-69
2022/10/12 02:29:44;;;;;;;27.15;17.38;;;;;;;;;;4988592;28;20455;-70
2022/10/12 02:32:12;;;;;;;33.53;17.95;;;;;;;;;;4990910;28;20034;-69
2022/10/12 02:34:46;;;;;;;33.63;18.40;;;;;;;;;;5004941;28;20125;-70
2022/10/12 02:37:20;;;;;;;34.72;17.90;;;;;;;;;;4993442;28;20086;-69
2022/10/12 02:39:48;;;;;;;32.78;19.42;;;;;;;;;;4986105;28;20452;-68
2022/10/12 02:42:16;;;;;;;31.35;17.50;;;;;;;;;;4989317;28;20026;-70
2022/10/12 02:44:43;;;;;;;29.27;17.70;;;;;;;;;;4987361;28;20476;-69
2022/10/12 02:47:10;;;;;;;30.27;18.08;;;;;;;;;;5004953;28;20037;-69
2022/10/12 02:49:36;;;;;;;34.55;18.05;;;;;;;;;;4992439;28;20038;-69
2022/10/12 02:52:02;;;;;;;30.40;18.30;;;;;;;;;;4994580;28;20531;-69
2022/10/12 02:54:28;;;;;;;1871.53;228.77;;;;;;;;;;4993368;28;20034;-69
2022/10/12 02:56:53;;;;;;;37.60;22.90;;;;;;;;;;4994970;28;20037;-70
2022/10/12 02:59:19;;;;;;;30.93;18.30;;;;;;;;;;4990336;28;20313;-70
2022/10/12 03:01:44;;;;;;;33.28;18.38;;;;;;;;;;4995303;28;20034;-69
2022/10/12 03:04:09;;;;;;;31.98;17.85;;;;;;;;;;4992945;28;20719;-69
2022/10/12 03:06:34;;;;;;;30.13;18.10;;;;;;;;;;4993015;28;20033;-70
2022/10/12 03:09:00;;;;;;;31.50;18.90;;;;;;;;;;4993994;28;20361;-70
2022/10/12 03:11:25;;;;;;;35.72;18.25;;;;;;;;;;4994169;28;20037;-70
2022/10/12 03:13:51;;;;;;;29.52;18.55;;;;;;;;;;5009094;28;20117;-70
2022/10/12 03:16:17;;;;;;;29.80;17.98;;;;;;;;;;5005465;28;20137;-69
2022/10/12 03:18:42;;;;;;;33.13;18.77;;;;;;;;;;4993055;28;20161;-68
2022/10/12 03:21:07;;;;;;;30.33;18.20;;;;;;;;;;5002655;28;20058;-69
2022/10/12 03:23:32;;;;;;;36.78;19.30;;;;;;;;;;4994306;28;20120;-68
2022/10/12 03:25:58;;;;;;;35.67;19.10;;;;;;;;;;4992973;28;20505;-69
2022/10/12 03:28:23;;;;;;;30.17;18.60;;;;;;;;;;4993772;28;20026;-69
2022/10/12 03:30:48;;;;;;;36.33;18.63;;;;;;;;;;4987801;28;20034;-69
2022/10/12 03:33:13;;;;;;;35.70;20.23;;;;;;;;;;5001890;28;20058;-68
2022/10/12 03:35:39;;;;;;;31.07;18.67;;;;;;;;;;4973742;28;20026;-69
2022/10/12 03:38:04;;;;;;;30.70;18.03;;;;;;;;;;4987869;28;20038;-68
2022/10/12 03:40:29;;;;;;;31.90;18.70;;;;;;;;;;4988881;28;20059;-68
2022/10/12 03:42:54;;;;;;;33.47;19.03;;;;;;;;;;4993775;28;20030;-68
2022/10/12 03:45:20;;;;;;;28.02;17.70;;;;;;;;;;4991900;28;20335;-68
2022/10/12 03:47:46;;;;;;;32.07;17.70;;;;;;;;;;4993657;28;20080;-68
2022/10/12 03:50:12;;;;;;;33.20;19.30;;;;;;;;;;4988143;28;20019;-68
2022/10/12 03:52:37;;;;;;;30.60;18.90;;;;;;;;;;4993653;28;20033;-67
2022/10/12 03:55:02;;;;;;;33.93;18.53;;;;;;;;;;4992801;28;20311;-67
2022/10/12 03:57:27;;;;;;;32.50;18.63;;;;;;;;;;4993401;28;20757;-68
2022/10/12 03:59:53;;;;;;;37.27;18.47;;;;;;;;;;4993155;28;20035;-68
2022/10/12 04:02:18;;;;;;;39.27;19.37;;;;;;;;;;4990955;28;20282;-68
2022/10/12 04:04:43;;;;;;;38.67;20.23;;;;;;;;;;4990123;28;20053;-68
2022/10/12 04:07:09;;;;;;;35.33;19.93;;;;;;;;;;4992870;28;20029;-68
2022/10/12 04:09:34;;;;;;;31.83;19.73;;;;;;;;;;4993660;28;20018;-69
2022/10/12 04:12:00;;;;;;;34.42;20.33;;;;;;;;;;4992224;28;20034;-69
2022/10/12 04:14:25;;;;;;;35.88;19.27;;;;;;;;;;4991138;28;20034;-68
2022/10/12 04:16:52;;;;;;;30.52;18.23;;;;;;;;;;4988833;28;20054;-69
2022/10/12 04:19:17;;;;;;;34.20;19.30;;;;;;;;;;4988621;28;21016;-68
2022/10/12 04:21:42;;;;;;;35.07;19.87;;;;;;;;;;4992336;28;20026;-68
2022/10/12 04:24:08;;;;;;;34.53;20.27;;;;;;;;;;5007866;28;20331;-68
2022/10/12 04:26:33;;;;;;;34.73;19.60;;;;;;;;;;4991933;28;20085;-68
2022/10/12 04:28:58;;;;;;;36.45;19.63;;;;;;;;;;4993106;28;20030;-69
2022/10/12 04:31:23;;;;;;;33.03;19.52;;;;;;;;;;4991899;28;20451;-68
2022/10/12 04:33:55;;;;;;;35.00;20.45;;;;;;;;;;4992822;28;20373;-68
2022/10/12 04:36:20;;;;;;;32.53;20.70;;;;;;;;;;4989189;28;20522;-69
2022/10/12 04:38:45;;;;;;;33.70;20.15;;;;;;;;;;4993176;28;20031;-68
2022/10/12 04:41:11;;;;;;;36.20;18.97;;;;;;;;;;4986422;28;20034;-68
2022/10/12 04:43:36;;;;;;;29.83;17.57;;;;;;;;;;4975538;28;20089;-69
2022/10/12 04:46:01;;;;;;;34.73;18.73;;;;;;;;;;4993846;28;20275;-68
2022/10/12 04:48:26;;;;;;;31.87;18.00;;;;;;;;;;4995579;28;20037;-68
2022/10/12 04:50:52;;;;;;;44.33;18.40;;;;;;;;;;4991450;28;20125;-70
2022/10/12 04:53:17;;;;;;;32.25;18.30;;;;;;;;;;4990889;28;20685;-69
2022/10/12 04:55:43;;;;;;;31.77;18.35;;;;;;;;;;4990259;28;20025;-68
2022/10/12 04:58:08;;;;;;;29.80;18.47;;;;;;;;;;4988144;28;20117;-69
2022/10/12 05:00:33;;;;;;;32.67;18.10;;;;;;;;;;4989244;28;20292;-68
2022/10/12 05:02:58;;;;;;;27.93;17.20;;;;;;;;;;4991234;28;20359;-69
2022/10/12 05:05:24;;;;;;;27.73;17.90;;;;;;;;;;4992035;28;20130;-69
2022/10/12 05:07:49;;;;;;;37.33;18.33;;;;;;;;;;4990337;28;20030;-69
2022/10/12 05:10:14;;;;;;;35.03;19.60;;;;;;;;;;4988195;28;20029;-67
2022/10/12 05:12:39;;;;;;;35.67;18.42;;;;;;;;;;4993950;28;20288;-68
2022/10/12 05:15:05;;;;;;;30.83;18.90;;;;;;;;;;4991165;28;20544;-70
2022/10/12 05:17:31;;;;;;;29.35;18.50;;;;;;;;;;5007162;28;20030;-70
2022/10/12 05:19:56;;;;;;;36.40;18.97;;;;;;;;;;4989632;28;20102;-72
2022/10/12 05:22:22;;;;;;;45.83;19.20;;;;;;;;;;4988130;28;20038;-70
2022/10/12 05:24:48;;;;;;;39.67;19.35;;;;;;;;;;4990782;28;20030;-69
2022/10/12 05:27:13;;;;;;;33.75;19.45;;;;;;;;;;4991678;28;20105;-69
2022/10/12 05:29:38;;;;;;;35.77;20.47;;;;;;;;;;4987300;28;20032;-71
2022/10/12 05:32:04;;;;;;;33.50;20.07;;;;;;;;;;4991631;28;20034;-71
2022/10/12 05:34:29;;;;;;;34.67;20.33;;;;;;;;;;4990449;28;20908;-70
2022/10/12 05:36:54;;;;;;;37.13;20.27;;;;;;;;;;4989970;28;20030;-70
2022/10/12 05:39:19;;;;;;;35.33;19.75;;;;;;;;;;4985576;28;20030;-69
2022/10/12 05:41:45;;;;;;;42.28;19.10;;;;;;;;;;4989247;28;20030;-69
2022/10/12 05:44:10;;;;;;;38.33;19.50;;;;;;;;;;4991807;28;20038;-70
2022/10/12 05:46:35;;;;;;;29.80;18.80;;;;;;;;;;4991675;28;20105;-69
2022/10/12 05:49:00;;;;;;;33.93;19.63;;;;;;;;;;4991311;28;20781;-70
2022/10/12 05:51:26;;;;;;;36.97;20.08;;;;;;;;;;5000920;28;20107;-70
2022/10/12 05:53:51;;;;;;;32.35;19.60;;;;;;;;;;4989704;28;20101;-70
2022/10/12 05:56:16;;;;;;;36.43;20.13;;;;;;;;;;4989753;28;20393;-70
2022/10/12 05:58:42;;;;;;;36.53;19.63;;;;;;;;;;4990385;28;20338;-70
2022/10/12 06:01:08;;;;;;;33.77;20.40;;;;;;;;;;5005493;28;20315;-69
2022/10/12 06:03:33;;;;;;;37.63;20.60;;;;;;;;;;4991798;28;20037;-71
2022/10/12 06:05:59;;;;;;;41.60;20.73;;;;;;;;;;4987457;28;20030;-71
2022/10/12 06:08:24;;;;;;;38.30;21.98;;;;;;;;;;4989853;28;20832;-72
2022/10/12 06:10:50;;;;;;;41.73;21.30;;;;;;;;;;4992030;28;20022;-72
2022/10/12 06:13:16;;;;;;;38.45;20.48;;;;;;;;;;4990215;28;20113;-70
2022/10/12 06:15:43;;;;;;;38.15;21.10;;;;;;;;;;4989568;28;20061;-70
2022/10/12 06:18:09;;;;;;;35.10;20.15;;;;;;;;;;4989725;28;20042;-71
2022/10/12 06:20:34;;;;;;;39.17;21.00;;;;;;;;;;4989090;28;20085;-71
2022/10/12 06:22:59;;;;;;;36.93;21.07;;;;;;;;;;4989725;28;20284;-71
2022/10/12 06:25:24;;;;;;;42.97;20.93;;;;;;;;;;4990416;28;20027;-71
2022/10/12 06:27:50;;;;;;;46.37;22.00;;;;;;;;;;4990499;28;20079;-71
2022/10/12 06:30:15;;;;;;;41.40;21.13;;;;;;;;;;5004173;28;20646;-71
2022/10/12 06:32:41;;;;;;;38.80;22.27;;;;;;;;;;4992019;28;20463;-71
2022/10/12 06:35:06;;;;;;;42.65;21.30;;;;;;;;;;4994874;28;20095;-71
2022/10/12 06:37:31;;;;;;;42.83;21.92;;;;;;;;;;4991313;28;20027;-72
2022/10/12 06:39:57;;;;;;;34.43;20.20;;;;;;;;;;5005502;28;20041;-72
2022/10/12 06:42:22;;;;;;;34.37;20.10;;;;;;;;;;4988696;28;20057;-72
2022/10/12 06:44:47;;;;;;;40.83;20.83;;;;;;;;;;5004508;28;20528;-70
2022/10/12 06:47:12;;;;;;;33.00;20.65;;;;;;;;;;4989176;28;20457;-71
2022/10/12 06:49:38;;;;;;;42.03;21.73;;;;;;;;;;4987742;28;20031;-71
2022/10/12 06:52:03;;;;;;;38.10;20.40;;;;;;;12.78;nan;101329.50;4991599;28;20276;-73
2022/10/12 06:54:29;;;;;;;38.00;20.77;;;;;;;;;;4988419;28;20069;-73
2022/10/12 06:56:54;;;;;;;37.97;21.00;;;;;;;;;;4991313;28;20029;-71
2022/10/12 06:59:21;;;;;;;41.17;21.70;;;;;;;;;;4991045;28;20033;-70
2022/10/12 07:01:46;;;;;;;46.25;21.40;;;;;;;;;;4991387;28;20435;-70
2022/10/12 07:04:12;;;;;;;43.57;22.07;;;;;;;;;;4992243;28;20030;-72
2022/10/12 07:06:37;;;;;;;42.23;23.27;;;;;;;;;;4988050;28;20272;-72
2022/10/12 07:09:02;;;;;;;43.70;25.87;;;;;;;;;;4989481;28;20037;-72
2022/10/12 07:11:27;;;;;;;41.53;25.70;;;;;;;;;;4991992;28;20038;-72
2022/10/12 07:13:53;;;;;;;44.67;24.58;;;;;;;;;;5005857;28;20276;-71
2022/10/12 07:16:18;;;;;;;46.73;23.90;;;;;;;;;;4991250;28;20054;-71
2022/10/12 07:18:43;;;;;;;39.17;23.63;;;;;;;;;;4989720;28;21156;-73
2022/10/12 07:21:09;;;;;;;50.42;23.25;;;;;;;;;;5005368;28;20280;-71
2022/10/12 07:23:36;;;;;;;40.28;22.92;;;;;;;;;;4989526;28;20011;-70
2022/10/12 07:26:01;;;;;;;37.85;22.30;;;;;;;;;;4991433;28;20026;-71
2022/10/12 07:28:27;;;;;;;42.47;25.27;;;;;;;13.39;nan;101334.03;4987555;28;20041;-71
2022/10/12 07:30:52;;;;;;;39.67;22.27;;;;;;;;;;4987907;28;20049;-71
2022/10/12 07:33:17;;;;;;;37.50;22.20;;;;;;;;;;4991081;28;20088;-71
2022/10/12 07:35:43;;;;;;;42.50;21.60;;;;;;;;;;4994223;28;20023;-71
2022/10/12 07:38:09;;;;;;;43.97;20.88;;;;;;;;;;4993991;28;20125;-71
2022/10/12 07:40:35;;;;;;;36.75;20.42;;;;;;;;;;4994222;28;20088;-72
2022/10/12 07:43:01;;;;;;;37.53;20.90;;;;;;;;;;4994114;28;20022;-73
2022/10/12 07:45:27;;;;;;;33.45;20.58;;;;;;;;;;4994044;28;20065;-73
2022/10/12 07:47:55;;;;;;;33.40;19.88;;;;;;;;;;4995338;28;20028;-72
2022/10/12 07:50:21;;;;;;;40.75;20.30;;;;;;;;;;4997074;28;20023;-71
2022/10/12 07:52:46;;;;;;;32.60;20.08;;;;;;;;;;4996765;28;20022;-71
2022/10/12 07:55:11;;;;;;;35.27;19.93;;;;;;;;;;4994015;28;20030;-71
2022/10/12 07:57:37;;;;;;;38.67;20.42;;;;;;;;;;4996925;28;20030;-71
2022/10/12 08:00:03;;;;;;;34.20;19.83;;;;;;;;;;4994782;28;20022;-71
2022/10/12 08:02:28;;;;;;;41.30;20.70;;;;;;;;;;4994450;28;20049;-72
2022/10/12 08:04:53;;;;;;;34.75;21.02;;;;;;;;;;4993900;28;20068;-74
2022/10/12 08:07:18;;;;;;;40.92;20.55;;;;;;;;;;4992732;28;20038;-72
2022/10/12 08:09:44;;;;;;;32.50;20.23;;;;;;;;;;4992452;28;20045;-73
2022/10/12 08:12:09;;;;;;;35.23;20.20;;;;;;;;;;4993519;28;20042;-72
2022/10/12 08:14:35;;;;;;;38.92;20.50;;;;;;;;;;4995324;28;20455;-72
2022/10/12 08:17:00;;;;;;;33.40;21.33;;;;;;;;;;4993439;28;20046;-72
2022/10/12 08:19:25;;;;;;;41.50;22.43;;;;;;;;;;4992475;28;20304;-71
2022/10/12 08:21:51;;;;;;;35.10;21.92;;;;;;;;;;5008411;28;20278;-73
2022/10/12 08:24:16;;;;;;;41.22;23.48;;;;;;;;;;4993605;28;20029;-71
2022/10/12 08:26:42;;;;;;;43.83;23.23;;;;;;;;;;4992661;28;20026;-71
2022/10/12 08:29:07;;;;;;;37.23;23.60;;;;;;;;;;4992118;28;20033;-71
2022/10/12 08:31:32;;;;;;;39.63;25.23;;;;;;;;;;4992027;28;20037;-71
2022/10/12 08:33:58;;;;;;;43.53;24.35;;;;;;;;;;4993333;28;20284;-70
2022/10/12 08:36:23;;;;;;;39.88;25.38;;;;;;;;;;4991555;28;20384;-71
2022/10/12 08:38:51;;;;;;;40.05;24.48;;;;;;;;;;4992022;28;20069;-71
2022/10/12 08:41:19;;;;;;;40.47;25.30;;;;;;;;;;4991517;28;20488;-70
2022/10/12 08:43:45;;;;;;;45.38;28.33;;;;;;;;;;4992402;28;20033;-72
2022/10/12 08:46:10;;;;;;;43.80;25.53;;;;;;;;;;4992820;28;20026;-72
2022/10/12 08:48:41;;;;;;;42.13;24.70;;;;;;;;;;4993351;28;20502;-70
2022/10/12 08:51:09;;;;;;;39.80;23.60;;;;;;;;;;4993083;28;20026;-71
2022/10/12 08:53:39;;;;;;;47.75;25.88;;;;;;;;;;4989436;28;20050;-71
2022/10/12 08:56:04;;;;;;;42.65;24.92;;;;;;;;;;4989712;28;20033;-71
2022/10/12 08:58:37;;;;;;;37.97;24.52;;;;;;;;;;4993247;28;20034;-72
2022/10/12 09:01:05;;;;;;;38.13;24.88;;;;;;;;;;4992089;28;20018;-73
2022/10/12 09:04:03;;;;;;;41.45;23.80;;;;;;;;;;5004789;28;20023;-73
2022/10/12 09:06:46;;;;;;;45.17;23.98;;;;;;;;;;4959063;28;20046;-73
2022/10/12 09:09:14;;;;;;;42.13;23.52;;;;;;;;;;4992873;28;20433;-72
2022/10/12 09:11:52;;;;;;;47.33;25.55;;;;;;;;;;4991481;28;20037;-72
2022/10/12 09:14:26;;;;;;;46.72;25.63;;;;;;;;;;4989542;28;20037;-71
2022/10/12 09:16:54;;;;;;;42.30;26.13;;;;;;;;;;4988897;28;20174;-73
2022/10/12 09:19:27;;;;;;;49.53;26.67;;;;;;;;;;4992601;28;20444;-73
2022/10/12 09:21:52;;;;;;;53.55;25.98;;;;;;;;;;4990713;28;20353;-72
2022/10/12 09:24:25;;;;;;;41.92;25.38;;;;;;;;;;4992687;28;20026;-72
2022/10/12 09:26:51;;;;;;;42.95;25.65;;;;;;;;;;4992589;28;20030;-72
2022/10/12 09:29:16;;;;;;;42.85;24.92;;;;;;;;;;4990202;28;20057;-72
2022/10/12 09:31:54;;;;;;;45.57;24.73;;;;;;;;;;4992124;28;20064;-71
2022/10/12 09:34:19;;;;;;;44.67;26.08;;;;;;;;;;4989783;28;20117;-70
2022/10/12 09:36:44;;;;;;;46.73;27.33;;;;;;;;;;4989658;28;20126;-70
2022/10/12 09:39:17;;;;;;;42.45;24.63;;;;;;;;;;4990638;28;20034;-70
2022/10/12 09:41:44;;;;;;;41.58;24.02;;;;;;;;;;5007322;28;20516;-71
2022/10/12 09:44:14;;;;;;;38.20;23.42;;;;;;;;;;4990410;28;20080;-71
2022/10/12 09:46:39;;;;;;;36.60;22.00;;;;;;;;;;4991437;28;20038;-71
2022/10/12 09:49:04;;;;;;;34.50;20.87;;;;;;;;;;4990030;28;20018;-71
2022/10/12 09:51:30;;;;;;;40.08;21.92;;;;;;;;;;4992398;28;20053;-70
2022/10/12 09:54:01;;;;;;;37.25;21.55;;;;;;;;;;4991415;28;20018;-70
2022/10/12 09:56:39;;;;;;;36.80;22.05;;;;;;;;;;4987228;28;20115;-71
2022/10/12 09:59:06;;;;;;;36.40;22.02;;;;;;;;;;4993505;28;20117;-70
2022/10/12 10:01:33;;;;;;;36.15;22.75;;;;;;;;;;4993632;28;20057;-70
2022/10/12 10:04:17;;;;;;;34.38;22.88;;;;;;;;;;4992003;28;20026;-71
2022/10/12 10:06:43;;;;;;;32.40;21.73;;;;;;;;;;4989882;28;20507;-70
2022/10/12 10:09:25;;;;;;;38.58;22.75;;;;;;;;;;4991757;28;20045;-71
2022/10/12 10:11:50;;;;;;;41.53;23.10;;;;;;;;;;4991872;28;20093;-70
2022/10/12 10:14:15;;;;;;;35.27;21.30;;;;;;;;;;4993141;28;20030;-69
2022/10/12 10:16:48;;;;;;;38.87;22.43;;;;;;;;;;4991653;28;20559;-69
2022/10/12 10:19:25;;;;;;;33.38;21.10;;;;;;;;;;4988674;28;20034;-70
2022/10/12 10:21:52;;;;;;;34.33;21.90;;;;;;;;;;4991831;28;20090;-70
2022/10/12 10:24:28;;;;;;;32.80;21.05;;;;;;;;;;4990392;28;20377;-70
2022/10/12 10:27:00;;;;;;;35.20;20.67;;;;;;;;;;4992743;28;20027;-70
2022/10/12 10:29:29;;;;;;;44.25;22.88;;;;;;;;;;4991875;28;20126;-70
2022/10/12 10:32:13;;;;;;;32.72;21.65;;;;;;;;;;4993622;28;20484;-70
2022/10/12 10:34:41;;;;;;;45.42;22.08;;;;;;;;;;4992942;28;20686;-70
2022/10/12 10:37:12;;;;;;;39.58;23.10;;;;;;;;;;4994885;28;20066;-70
2022/10/12 10:39:48;;;;;;;37.92;22.67;;;;;;;;;;4994846;28;20109;-70
2022/10/12 10:42:18;;;;;;;33.42;22.42;;;;;;;;;;4995187;28;20032;-71
2022/10/12 10:44:43;;;;;;;;;;;;;;;;;;4991672;28;20480;-69
2022/10/12 10:47:10;;;;;;;35.70;21.38;;;;;;;;;;5006924;28;20439;-70
2022/10/12 10:49:39;;;;;;;34.42;20.17;;;;;;;;;;4991093;28;20514;-70
2022/10/12 10:52:06;;;;;;;33.53;21.90;;;;;;;;;;4999192;28;20117;-70
2022/10/12 10:54:33;;;;;;;35.83;21.10;;;;;;;;;;4989521;28;20100;-70
2022/10/12 10:57:00;;;;;;;41.17;21.33;;;;;;;;;;4994164;28;20061;-70
2022/10/12 10:59:33;;;;;;;29.95;20.70;;;;;;;;;;4991305;28;20034;-70
2022/10/12 11:02:01;;;;;;;30.35;22.02;;;;;;;;;;4985262;28;20113;-70
2022/10/12 11:04:35;;;;;;;35.15;22.17;;;;;;;;;;4989311;28;20101;-71
2022/10/12 11:07:12;;;;;;;33.65;20.15;;;;;;;18.22;nan;101265.75;4986839;28;20077;-71
2022/10/12 11:09:43;;;;;;;36.25;21.35;;;;;;;;;;5005237;28;20473;-71
2022/10/12 11:12:16;;;;;;;37.20;20.63;;;;;;;18.36;nan;101204.78;4996001;28;20034;-71
2022/10/12 11:14:43;;;;;;;35.47;20.67;;;;;;;;;;4991850;28;20026;-71
2022/10/12 11:17:32;;;;;;;39.60;22.15;;;;;;;18.46;nan;101234.19;4993421;28;20058;-71
2022/10/12 11:19:57;;;;;;;39.42;21.40;;;;;;;;;;4993539;28;20061;-71
2022/10/12 11:22:48;;;;;;;36.03;22.17;;;;;;;18.53;nan;101219.81;4995497;28;20485;-71
2022/10/12 11:25:57;;;;;;;39.38;23.05;;;;;;;18.55;nan;101223.03;4993457;28;20031;-71
2022/10/12 11:28:26;;;;;;;37.17;23.55;;;;;;;;;;4962918;28;20032;-70
2022/10/12 11:30:52;;;;;;;;;;;;;;;18.53;nan;101227.81;4985285;28;20074;-70
2022/10/12 11:33:22;;;;;;;35.10;20.85;;;;;;;18.58;nan;101215.34;4961137;28;19941;-71
2022/10/12 11:35:47;;;;;;;39.17;22.40;;;;;;;;;;4979949;28;20034;-70
2022/10/12 11:38:20;;;;;;;40.03;22.63;;;;;;;18.73;nan;101214.63;4959189;28;20584;-71
2022/10/12 11:40:58;;;;;;;35.60;22.63;;;;;;;;;;4979385;28;20066;-71
2022/10/12 11:43:35;;;;;;;40.50;22.23;;;;;;;18.83;nan;101225.34;4977854;28;20558;-70
2022/10/12 11:46:04;;;;;;;34.40;21.38;;;;;;;18.82;nan;101202.41;4973010;28;20595;-70
2022/10/12 11:49:28;;;;;;;35.55;21.90;;;;;;;18.89;nan;101194.16;4980713;28;20062;-70
2022/10/12 11:51:58;;;;;;;38.53;22.80;;;;;;;18.87;nan;101252.34;4943624;28;20093;-69
2022/10/12 11:54:35;;;;;;;40.78;22.27;;;;;;;18.91;nan;101230.22;4974909;28;20031;-69
2022/10/12 11:57:09;;;;;;;32.40;22.38;;;;;;;18.82;nan;101209.59;4979150;28;20442;-71
2022/10/12 11:59:46;;;;;;;34.92;22.70;;;;;;;18.93;nan;101184.56;4979637;28;20867;-71
2022/10/12 12:02:37;;;;;;;38.85;24.20;;;;;;;18.96;nan;101231.28;4986913;28;20045;-70
2022/10/12 12:05:04;;;;;;;36.80;23.65;;;;;;;18.99;nan;101212.91;4993089;28;20080;-70
2022/10/12 12:07:38;;;;;;;41.78;24.02;;;;;;;;;;4992693;28;20058;-71
2022/10/12 12:10:34;;;;;;;43.47;24.02;;;;;;;19.06;nan;101221.47;4995907;28;20106;-71
2022/10/12 12:13:11;;;;;;;41.83;23.48;;;;;;;19.08;nan;101219.34;4994280;28;20050;-70
2022/10/12 12:15:38;;;;;;;35.72;23.42;;;;;;;19.11;nan;101196.66;4992684;28;20132;-70
2022/10/12 12:18:12;;;;;;;42.00;26.40;;;;;;;19.16;nan;101231.38;4993875;28;20030;-71
2022/10/12 12:20:41;;;;;;;40.97;26.33;;;;;;;19.18;nan;101220.41;4993364;28;20499;-71
2022/10/12 12:23:32;;;;;;;44.22;28.08;;;;;;;19.18;nan;101245.25;4994065;28;20037;-71
2022/10/12 12:26:04;;;;;;;53.58;28.90;;;;;;;19.20;nan;101227.13;5006269;28;20035;-71
2022/10/12 12:28:31;;;;;;;48.40;29.08;;;;;;;19.24;nan;101214.03;4991604;28;20022;-71
2022/10/12 12:31:00;;;;;;;49.28;29.42;;;;;;;19.19;nan;101217.50;4993742;28;20019;-71
2022/10/12 12:33:37;;;;;;;48.72;28.88;;;;;;;19.22;nan;101224.16;4993282;28;20495;-71
2022/10/12 12:36:08;;;;;;;48.17;28.48;;;;;;;19.22;nan;101227.63;4992382;28;20041;-71
2022/10/12 12:38:45;;;;;;;49.45;28.80;;;;;;;19.17;nan;101216.94;5006020;28;20022;-71
2022/10/12 12:41:18;;;;;;;54.92;30.58;;;;;;;19.16;nan;101220.69;4989175;28;20030;-70
2022/10/12 12:43:44;;;;;;;51.78;32.17;;;;;;;19.06;nan;101229.47;4992186;28;20034;-71
2022/10/12 12:46:12;;;;;;;52.83;31.90;;;;;;;18.99;nan;101215.56;4989104;28;20113;-72
2022/10/12 12:48:37;;;;;;;59.92;32.85;;;;;;;18.91;nan;101237.41;4988232;28;20789;-71
2022/10/12 12:51:07;;;;;;;59.87;32.33;;;;;;;18.92;nan;101199.78;4993000;28;20070;-71
2022/10/12 12:53:37;;;;;;;49.92;31.98;;;;;;;18.84;nan;101226.16;4990163;28;20478;-71
2022/10/12 12:56:28;;;;;;;56.28;31.33;;;;;;;18.97;nan;101238.25;5006251;28;20053;-71
2022/10/12 12:59:12;;;;;;;53.00;31.00;;;;;;;18.96;nan;101216.06;4947965;28;20074;-70
2022/10/12 13:01:49;;;;;;;48.17;30.25;;;;;;;19.01;nan;101201.94;4949174;28;20030;-71
2022/10/12 13:04:39;;;;;;;46.25;29.60;;;;;;;19.07;nan;101223.06;4949267;28;20059;-70
2022/10/12 13:07:05;;;;;;;56.92;28.92;;;;;;;19.11;nan;101216.13;4952037;28;20031;-71
2022/10/12 13:09:39;;;;;;;46.60;30.40;;;;;;;19.13;nan;101222.03;4945304;28;20581;-70
2022/10/12 13:12:53;;;;;;;46.80;30.17;;;;;;;19.15;nan;101221.75;4946818;28;20906;-70
2022/10/12 13:15:43;;;;;;;47.90;30.05;;;;;;;19.15;nan;101261.78;4948205;28;20144;-70
2022/10/12 13:18:42;;;;;;;52.03;31.60;;;;;;;19.21;nan;101222.56;4946102;28;20039;-70
2022/10/12 13:21:23;;;;;;;51.95;31.67;;;;;;;19.17;nan;101283.69;4939630;28;20036;-71
2022/10/12 13:23:55;;;;;;;51.88;31.40;;;;;;;19.09;nan;101226.28;4951898;28;20110;-72
2022/10/12 13:26:24;;;;;;;61.15;32.13;;;;;;;19.07;nan;101235.59;4946359;28;20198;-69
2022/10/12 13:28:51;;;;;;;53.83;32.67;;;;;;;18.91;nan;101208.03;4947739;28;20531;-70
2022/10/12 13:31:25;;;;;;;50.40;30.85;;;;;;;18.96;nan;101220.59;4953822;28;20031;-71
2022/10/12 13:34:12;;;;;;;53.10;29.67;;;;;;;18.99;nan;101198.75;4948404;28;20523;-70
2022/10/12 13:37:08;;;;;;;45.42;27.00;;;;;;;18.94;nan;101217.38;4986484;28;20042;-70
2022/10/12 13:39:43;;;;;;;47.60;28.17;;;;;;;18.83;nan;101209.34;4991086;28;20509;-71
2022/10/12 13:42:14;;;;;;;48.65;28.63;;;;;;;18.82;nan;101198.91;4987530;28;20381;-72
2022/10/12 13:44:40;;;;;;;46.63;28.85;;;;;;;;;;4992115;28;20113;-71
2022/10/12 13:47:28;;;;;;;49.58;30.05;;;;;;;18.76;nan;101191.94;4988969;28;20377;-71
2022/10/12 13:49:54;;;;;;;50.55;30.65;;;;;;;18.78;nan;101187.19;4987346;28;20030;-71
2022/10/12 13:52:32;;;;;;;47.20;31.95;;;;;;;18.80;nan;101201.88;4989956;28;20034;-70